الصفحة الرئيسية
METAR-TAF:

METAR-TAF

مطار :

بايسون, أريزونا, الولايات المتحدة

دائرة عرض: 34-15-25N, خط طول: 111-20-21W, ارتفاع: 1572 متر

مراقبة الطقس الحالي

تاريخ ووقت الإصدار 21 دقيقة قبل الساعة 10:35UTC
ريح 4 عقدة من الشرق
درجة الحرارة 17°درجة مئوية
الرطوبة 14%
ضغط 1026 hPa
الرؤية: 16.1 كم
سماء صافية

METAR: KPAN 291035Z AUTO 08004KT 10SM CLR 17/M11 A3031 RMK AO2

زمن: 03:56 (10:56 UTC)


TAF: مفقودة

أرصاد الطقس والتوقعات من أكثر من 4000 مطار (تقارير الطقس للمطار METAR والتنبؤ بالطقس بالمطارTAF).

المحطات المتاحة هي النقط الصفراء والحمراء على الخريطة.

حرك المؤشر فوق النقطة لمعرفة اسم المحطة.

ثم انقر لمعرفة أرصاد وتوقعات الطقس.

لتغيير الخارطة: اضغط على الأزرار الخضراء مع رمز الصليب الأسود للتكبير. على الزر الأخضر مع شرطة للتصغير، أو على الأسهم الخضراء للخرائط المجاورة.


METAR-TAF: